createdAt,value
2023-04-30T00:00:36.517Z,0.00
2023-04-30T00:01:36.439Z,0.00
2023-04-30T00:03:06.875Z,0.00
2023-04-30T00:03:36.697Z,0.00
2023-04-30T00:04:36.888Z,0.00
2023-04-30T00:05:43.058Z,0.00
2023-04-30T00:06:36.481Z,0.00
2023-04-30T00:28:52.583Z,0.00
2023-04-30T00:29:49.531Z,0.00
2023-04-30T00:30:50.212Z,0.00
2023-04-30T00:31:49.659Z,0.00
2023-04-30T00:32:49.627Z,0.00
2023-04-30T00:33:49.487Z,0.00
2023-04-30T00:34:49.535Z,0.00
2023-04-30T00:35:49.495Z,0.00
2023-04-30T00:36:49.467Z,0.00
2023-04-30T00:37:50.435Z,0.00
2023-04-30T00:38:49.646Z,0.00
2023-04-30T00:39:49.439Z,0.00
2023-04-30T00:40:49.382Z,0.00
2023-04-30T00:41:49.653Z,0.00
2023-04-30T00:42:49.409Z,0.00
2023-04-30T00:43:50.052Z,0.00
2023-04-30T00:44:49.880Z,0.00
2023-04-30T00:45:49.338Z,0.00
2023-04-30T00:46:50.150Z,0.00
2023-04-30T00:47:50.361Z,0.00
2023-04-30T00:48:50.057Z,0.00
2023-04-30T00:49:49.291Z,0.00
2023-04-30T00:50:49.758Z,0.00
2023-04-30T00:51:49.283Z,0.00
2023-04-30T00:52:49.918Z,0.00
2023-04-30T00:53:50.158Z,0.00
2023-04-30T00:54:49.431Z,0.00
2023-04-30T00:55:49.196Z,0.00
2023-04-30T00:56:49.464Z,0.00
2023-04-30T00:57:49.146Z,0.00
2023-04-30T00:58:49.528Z,0.00
2023-04-30T00:59:49.414Z,0.00
2023-04-30T01:00:49.569Z,0.00
2023-04-30T01:01:49.137Z,0.00
2023-04-30T01:02:50.831Z,0.00
2023-04-30T01:03:49.260Z,0.00
2023-04-30T01:04:49.148Z,0.00
2023-04-30T01:05:49.435Z,0.00
2023-04-30T01:06:49.335Z,0.00
2023-04-30T01:07:49.838Z,0.00
2023-04-30T01:08:49.889Z,0.00
2023-04-30T01:09:49.890Z,0.00
2023-04-30T01:10:50.233Z,0.00
2023-04-30T01:11:51.281Z,0.00
2023-04-30T01:12:49.754Z,0.00
2023-04-30T01:13:50.015Z,0.00
2023-04-30T01:14:49.411Z,0.00
2023-04-30T01:15:52.963Z,0.00
2023-04-30T01:16:50.988Z,0.00
2023-04-30T01:17:50.790Z,0.00
2023-04-30T01:18:49.538Z,0.00
2023-04-30T01:19:49.778Z,0.00
2023-04-30T01:20:49.128Z,0.00
2023-04-30T01:21:49.191Z,0.00
2023-04-30T01:22:49.374Z,0.00
2023-04-30T01:23:50.660Z,0.00
2023-04-30T01:24:56.933Z,0.00
2023-04-30T01:25:49.170Z,0.00
2023-04-30T01:26:49.391Z,0.00
2023-04-30T01:27:49.655Z,0.00
2023-04-30T01:28:49.611Z,0.00
2023-04-30T01:29:49.462Z,0.00
2023-04-30T01:30:49.224Z,0.00
2023-04-30T01:31:49.235Z,0.00
2023-04-30T01:32:49.201Z,0.00
2023-04-30T01:33:48.831Z,0.00
2023-04-30T01:34:49.159Z,0.00
2023-04-30T01:35:49.155Z,0.00
2023-04-30T01:36:48.641Z,0.00
2023-04-30T01:37:48.736Z,0.00
2023-04-30T01:38:49.156Z,0.00
2023-04-30T01:39:48.611Z,0.00
2023-04-30T01:40:49.228Z,0.00
2023-04-30T01:41:49.160Z,0.00
2023-04-30T01:42:49.151Z,0.00
2023-04-30T01:43:48.500Z,0.00
2023-04-30T01:44:49.160Z,0.00
2023-04-30T01:45:48.581Z,0.00
2023-04-30T01:46:48.533Z,0.00
2023-04-30T01:47:48.543Z,0.00
2023-04-30T01:48:48.501Z,0.00
2023-04-30T01:49:48.472Z,0.00
2023-04-30T01:50:48.458Z,0.00
2023-04-30T01:51:48.478Z,0.00
2023-04-30T01:52:48.370Z,0.00
2023-04-30T01:53:48.359Z,0.00
2023-04-30T01:54:48.375Z,0.00
2023-04-30T01:55:48.400Z,0.00
2023-04-30T01:56:48.306Z,0.00
2023-04-30T01:57:48.351Z,0.00
2023-04-30T01:58:48.399Z,0.00
2023-04-30T01:59:48.318Z,0.00
2023-04-30T02:00:48.266Z,0.00
2023-04-30T02:01:48.336Z,0.00
2023-04-30T02:02:48.327Z,0.00
2023-04-30T02:03:48.381Z,0.00
2023-04-30T02:04:48.212Z,0.00
2023-04-30T02:05:48.181Z,0.00
2023-04-30T02:06:48.173Z,0.00
2023-04-30T02:07:48.208Z,0.00
2023-04-30T02:08:48.233Z,0.00
2023-04-30T02:09:48.187Z,0.00
2023-04-30T02:10:48.179Z,0.00
2023-04-30T02:11:48.163Z,0.00
2023-04-30T02:12:48.163Z,0.00
2023-04-30T02:13:48.161Z,0.00
2023-04-30T02:14:48.111Z,0.00
2023-04-30T02:15:48.158Z,0.00
2023-04-30T02:16:48.117Z,0.00
2023-04-30T02:17:48.106Z,0.00
2023-04-30T02:18:48.165Z,0.00
2023-04-30T02:19:48.069Z,0.00
2023-04-30T02:20:48.059Z,0.00
2023-04-30T02:21:48.020Z,0.00
2023-04-30T02:22:47.992Z,0.00
2023-04-30T02:23:47.963Z,0.00
2023-04-30T02:24:47.919Z,0.00
2023-04-30T02:25:47.935Z,0.00
2023-04-30T02:26:47.902Z,0.00
2023-04-30T02:27:47.879Z,0.00
2023-04-30T02:28:47.865Z,0.00
2023-04-30T02:29:47.877Z,0.00
2023-04-30T02:30:47.911Z,0.00
2023-04-30T02:31:47.913Z,0.00
2023-04-30T02:32:48.001Z,0.00
2023-04-30T02:33:47.862Z,0.00
2023-04-30T02:34:47.842Z,0.00
2023-04-30T02:35:47.839Z,0.00
2023-04-30T02:36:47.916Z,0.00
2023-04-30T02:37:47.807Z,0.00
2023-04-30T02:38:47.866Z,0.00
2023-04-30T02:39:47.756Z,0.00
2023-04-30T02:40:47.828Z,0.00
2023-04-30T02:41:47.754Z,0.00
2023-04-30T02:42:47.823Z,0.00
2023-04-30T02:43:47.782Z,0.00
2023-04-30T02:44:47.712Z,0.00
2023-04-30T02:45:47.729Z,0.00
2023-04-30T02:46:47.699Z,0.00
2023-04-30T02:47:48.668Z,0.00
2023-04-30T02:48:47.666Z,0.00
2023-04-30T02:49:47.629Z,0.00
2023-04-30T02:50:47.611Z,0.00
2023-04-30T02:51:47.649Z,0.00
2023-04-30T02:52:47.555Z,0.00
2023-04-30T02:53:47.576Z,0.00
2023-04-30T02:54:47.526Z,0.00
2023-04-30T02:55:47.524Z,0.00
2023-04-30T02:56:47.530Z,0.00
2023-04-30T02:57:48.432Z,0.00
2023-04-30T02:58:47.479Z,0.00
2023-04-30T02:59:47.475Z,0.00
2023-04-30T03:00:47.483Z,0.00
2023-04-30T03:01:47.547Z,0.00
2023-04-30T03:02:47.463Z,0.00
2023-04-30T03:03:47.567Z,0.00
2023-04-30T03:04:47.384Z,0.00
2023-04-30T03:05:47.396Z,0.00
2023-04-30T03:06:47.358Z,0.00
2023-04-30T03:07:47.299Z,4.00
2023-04-30T03:08:47.333Z,4.00
2023-04-30T03:09:47.341Z,4.00
2023-04-30T03:10:47.336Z,0.00
2023-04-30T03:11:47.326Z,4.00
2023-04-30T03:12:47.326Z,4.00
2023-04-30T03:13:47.345Z,4.00
2023-04-30T03:14:47.337Z,4.00
2023-04-30T03:15:47.316Z,8.00
2023-04-30T03:16:47.261Z,8.00
2023-04-30T03:17:47.281Z,4.00
2023-04-30T03:18:47.285Z,12.00
2023-04-30T03:19:47.221Z,12.00
2023-04-30T03:20:47.226Z,12.00
2023-04-30T03:21:47.238Z,16.00
2023-04-30T03:22:47.156Z,16.00
2023-04-30T03:23:47.993Z,16.00
2023-04-30T03:24:47.222Z,24.00
2023-04-30T03:25:47.107Z,24.00
2023-04-30T03:26:47.137Z,28.00
2023-04-30T03:27:47.101Z,32.00
2023-04-30T03:28:47.145Z,40.00
2023-04-30T03:29:47.044Z,44.00
2023-04-30T03:30:47.082Z,48.00
2023-04-30T03:31:47.118Z,56.00
2023-04-30T03:32:47.056Z,64.00
2023-04-30T03:33:47.006Z,76.00
2023-04-30T03:34:47.102Z,88.00
2023-04-30T03:35:47.008Z,96.00
2023-04-30T03:36:46.958Z,108.00
2023-04-30T03:37:46.936Z,124.00
2023-04-30T03:38:46.941Z,140.00
2023-04-30T03:39:46.949Z,156.00
2023-04-30T03:40:46.882Z,172.00
2023-04-30T03:41:46.880Z,192.00
2023-04-30T03:42:48.191Z,208.00
2023-04-30T03:43:47.904Z,232.00
2023-04-30T03:44:46.811Z,256.00
2023-04-30T03:45:46.886Z,280.00
2023-04-30T03:46:47.612Z,308.00
2023-04-30T03:47:46.852Z,332.00
2023-04-30T03:48:46.805Z,364.00
2023-04-30T03:49:46.835Z,392.00
2023-04-30T03:50:46.763Z,424.00
2023-04-30T03:51:46.764Z,456.00
2023-04-30T03:52:46.751Z,488.00
2023-04-30T03:53:46.736Z,528.00
2023-04-30T03:54:46.942Z,564.00
2023-04-30T03:55:46.741Z,600.00
2023-04-30T03:56:47.416Z,640.00
2023-04-30T03:57:46.764Z,680.00
2023-04-30T03:58:46.683Z,724.00
2023-04-30T03:59:46.607Z,764.00
2023-04-30T04:00:46.637Z,808.00
2023-04-30T04:01:47.441Z,852.00
2023-04-30T04:02:46.659Z,896.00
2023-04-30T04:03:47.555Z,944.00
2023-04-30T04:04:47.396Z,988.00
2023-04-30T04:05:47.543Z,1040.00
2023-04-30T04:06:47.550Z,1084.00
2023-04-30T04:07:47.392Z,1128.00
2023-04-30T04:08:46.528Z,1176.00
2023-04-30T04:09:47.475Z,1228.00
2023-04-30T04:10:47.373Z,1276.00
2023-04-30T04:11:47.534Z,1324.00
2023-04-30T04:12:47.453Z,1368.00
2023-04-30T04:13:47.293Z,1416.00
2023-04-30T04:14:47.186Z,1464.00
2023-04-30T04:15:47.398Z,1512.00
2023-04-30T04:16:47.261Z,1564.00
2023-04-30T04:17:47.194Z,1612.00
2023-04-30T04:18:46.422Z,1660.00
2023-04-30T04:19:47.240Z,1712.00
2023-04-30T04:20:46.365Z,1756.00
2023-04-30T04:21:46.697Z,1804.00
2023-04-30T04:22:47.190Z,1852.00
2023-04-30T04:23:47.361Z,1896.00
2023-04-30T04:24:46.409Z,1944.00
2023-04-30T04:25:47.259Z,1988.00
2023-04-30T04:26:47.923Z,2032.00
2023-04-30T04:27:47.226Z,2076.00
2023-04-30T04:28:47.134Z,2124.00
2023-04-30T04:29:46.266Z,2164.00
2023-04-30T04:30:46.263Z,2208.00
2023-04-30T04:31:47.230Z,2248.00
2023-04-30T04:32:47.063Z,2296.00
2023-04-30T04:33:46.217Z,2336.00
2023-04-30T04:34:46.221Z,2380.00
2023-04-30T04:35:46.262Z,2420.00
2023-04-30T04:36:46.158Z,2464.00
2023-04-30T04:37:46.245Z,2504.00
2023-04-30T04:38:46.172Z,2544.00
2023-04-30T04:39:46.145Z,2588.00
2023-04-30T04:40:46.135Z,2624.00
2023-04-30T04:41:46.115Z,2664.00
2023-04-30T04:42:47.189Z,2692.00
2023-04-30T04:43:46.120Z,2720.00
2023-04-30T04:44:46.134Z,2752.00
2023-04-30T04:45:47.037Z,2784.00
2023-04-30T04:46:47.041Z,2820.00
2023-04-30T04:47:46.031Z,2852.00
2023-04-30T04:48:46.753Z,2884.00
2023-04-30T04:49:46.083Z,2924.00
2023-04-30T04:50:46.081Z,2956.00
2023-04-30T04:51:45.979Z,2988.00
2023-04-30T04:52:46.088Z,3020.00
2023-04-30T04:53:45.903Z,3056.00
2023-04-30T04:54:45.935Z,3096.00
2023-04-30T04:55:45.871Z,3124.00
2023-04-30T04:56:46.741Z,3156.00
2023-04-30T04:57:45.884Z,3192.00
2023-04-30T04:58:45.878Z,3232.00
2023-04-30T04:59:46.732Z,3268.00
2023-04-30T05:00:46.647Z,3312.00
2023-04-30T05:01:46.142Z,3372.00
2023-04-30T05:02:46.844Z,3428.00
2023-04-30T05:03:45.902Z,3440.00
2023-04-30T05:04:45.740Z,3448.00
2023-04-30T05:05:46.614Z,3492.00
2023-04-30T05:06:46.236Z,3536.00
2023-04-30T05:07:46.187Z,3580.00
2023-04-30T05:08:46.074Z,3608.00
2023-04-30T05:09:46.165Z,3616.00
2023-04-30T05:10:45.696Z,3612.00
2023-04-30T05:11:45.679Z,3628.00
2023-04-30T05:12:45.984Z,3656.00
2023-04-30T05:13:46.145Z,3692.00
2023-04-30T05:14:46.129Z,3716.00
2023-04-30T05:15:45.679Z,3744.00
2023-04-30T05:16:45.762Z,3780.00
2023-04-30T05:17:45.630Z,3816.00
2023-04-30T05:18:45.603Z,3852.00
2023-04-30T05:19:45.533Z,3888.00
2023-04-30T05:20:45.731Z,3924.00
2023-04-30T05:21:45.551Z,3952.00
2023-04-30T05:22:45.603Z,3980.00
2023-04-30T05:23:45.568Z,4012.00
2023-04-30T05:24:45.767Z,4048.00
2023-04-30T05:25:45.442Z,4072.00
2023-04-30T05:26:45.705Z,4104.00
2023-04-30T05:27:45.459Z,4128.00
2023-04-30T05:28:45.447Z,4160.00
2023-04-30T05:29:45.382Z,4196.00
2023-04-30T05:30:45.577Z,4232.00
2023-04-30T05:31:45.556Z,4276.00
2023-04-30T05:32:45.502Z,4344.00
2023-04-30T05:33:45.347Z,4528.00
2023-04-30T05:34:45.545Z,4976.00
2023-04-30T05:35:45.475Z,5304.00
2023-04-30T05:36:45.468Z,5388.00
2023-04-30T05:37:45.422Z,5308.00
2023-04-30T05:38:45.817Z,5080.00
2023-04-30T05:39:45.309Z,5044.00
2023-04-30T05:40:45.353Z,5336.00
2023-04-30T05:41:45.366Z,5684.00
2023-04-30T05:42:45.298Z,5856.00
2023-04-30T05:43:45.385Z,5904.00
2023-04-30T05:44:45.194Z,5916.00
2023-04-30T05:45:45.432Z,5984.00
2023-04-30T05:46:45.242Z,6044.00
2023-04-30T05:47:45.206Z,6172.00
2023-04-30T05:48:45.154Z,6484.00
2023-04-30T05:49:45.107Z,6520.00
2023-04-30T05:50:45.167Z,6632.00
2023-04-30T05:51:45.082Z,6760.00
2023-04-30T05:52:45.142Z,6884.00
2023-04-30T05:53:45.087Z,6896.00
2023-04-30T05:54:45.461Z,6860.00
2023-04-30T05:55:45.084Z,6848.00
2023-04-30T05:56:45.068Z,6836.00
2023-04-30T05:57:44.975Z,6796.00
2023-04-30T05:58:45.078Z,6768.00
2023-04-30T05:59:45.089Z,6776.00
2023-04-30T06:00:45.025Z,6776.00
2023-04-30T06:01:45.947Z,6792.00
2023-04-30T06:02:45.028Z,6796.00
2023-04-30T06:03:45.063Z,6792.00
2023-04-30T06:04:45.028Z,6792.00
2023-04-30T06:05:45.146Z,6828.00
2023-04-30T06:06:45.950Z,6840.00
2023-04-30T06:07:44.889Z,6856.00
2023-04-30T06:08:44.880Z,6864.00
2023-04-30T06:09:44.938Z,6884.00
2023-04-30T06:10:44.878Z,6940.00
2023-04-30T06:11:44.951Z,6968.00
2023-04-30T06:12:44.839Z,6992.00
2023-04-30T06:13:44.982Z,7012.00
2023-04-30T06:14:44.752Z,7052.00
2023-04-30T06:15:44.744Z,7092.00
2023-04-30T06:16:44.799Z,7120.00
2023-04-30T06:17:44.790Z,7160.00
2023-04-30T06:18:44.789Z,7188.00
2023-04-30T06:19:44.895Z,7224.00
2023-04-30T06:20:44.717Z,7256.00
2023-04-30T06:21:44.678Z,7292.00
2023-04-30T06:22:44.732Z,7340.00
2023-04-30T06:23:44.751Z,7380.00
2023-04-30T06:24:44.634Z,7408.00
2023-04-30T06:25:44.661Z,7464.00
2023-04-30T06:26:44.666Z,7528.00
2023-04-30T06:27:44.956Z,7588.00
2023-04-30T06:28:44.592Z,7656.00
2023-04-30T06:29:44.619Z,7732.00
2023-04-30T06:30:44.602Z,7788.00
2023-04-30T06:31:44.677Z,7848.00
2023-04-30T06:32:44.680Z,7908.00
2023-04-30T06:33:44.653Z,8024.00
2023-04-30T06:34:44.609Z,8172.00
2023-04-30T06:35:44.556Z,8428.00
2023-04-30T06:36:44.513Z,8804.00
2023-04-30T06:37:45.024Z,9224.00
2023-04-30T06:38:47.327Z,9752.00
2023-04-30T06:39:45.511Z,10760.00
2023-04-30T06:40:44.616Z,12572.00
2023-04-30T06:41:45.700Z,14476.00
2023-04-30T06:42:46.868Z,16256.00
2023-04-30T06:43:45.490Z,17216.00
2023-04-30T06:44:44.394Z,17920.00
2023-04-30T06:45:44.553Z,18816.00
2023-04-30T06:46:44.402Z,22272.00
2023-04-30T06:47:44.317Z,23936.00
2023-04-30T06:48:44.315Z,25632.00
2023-04-30T06:49:44.348Z,22304.00
2023-04-30T06:50:44.288Z,27392.00
2023-04-30T06:51:44.369Z,28256.00
2023-04-30T06:52:44.453Z,16736.00
2023-04-30T06:53:44.267Z,16180.00
2023-04-30T06:54:44.230Z,32640.00
2023-04-30T06:55:44.242Z,24640.00
2023-04-30T06:56:44.253Z,17024.00
2023-04-30T06:57:44.206Z,17344.00
2023-04-30T06:58:44.176Z,15680.00
2023-04-30T06:59:44.146Z,17376.00
2023-04-30T07:00:44.408Z,13576.00
2023-04-30T07:01:44.423Z,14908.00
2023-04-30T07:02:44.270Z,16468.00
2023-04-30T07:03:44.193Z,18208.00
2023-04-30T07:04:44.060Z,28128.00
2023-04-30T07:05:44.042Z,35424.00
2023-04-30T07:06:44.129Z,25088.00
2023-04-30T07:07:44.911Z,34208.00
2023-04-30T07:08:44.026Z,30912.00
2023-04-30T07:09:44.008Z,20448.00
2023-04-30T07:10:44.010Z,35168.00
2023-04-30T07:11:44.821Z,34880.00
2023-04-30T07:12:43.981Z,32736.00
2023-04-30T07:13:44.052Z,17120.00
2023-04-30T07:14:43.987Z,31552.00
2023-04-30T07:15:44.080Z,18048.00
2023-04-30T07:16:44.000Z,32832.00
2023-04-30T07:17:43.961Z,32064.00
2023-04-30T07:18:43.975Z,30976.00
2023-04-30T07:19:43.928Z,31424.00
2023-04-30T07:20:44.048Z,33152.00
2023-04-30T07:21:43.861Z,33792.00
2023-04-30T07:22:43.861Z,33984.00
2023-04-30T07:23:43.824Z,33216.00
2023-04-30T07:24:44.336Z,32736.00
2023-04-30T07:25:43.853Z,32288.00
2023-04-30T07:26:43.802Z,31744.00
2023-04-30T07:27:43.774Z,31392.00
2023-04-30T07:28:43.842Z,31296.00
2023-04-30T07:29:43.970Z,27648.00
2023-04-30T07:30:43.884Z,33984.00
2023-04-30T07:31:43.881Z,36288.00
2023-04-30T07:32:44.591Z,37120.00
2023-04-30T07:33:43.681Z,36576.00
2023-04-30T07:34:44.694Z,37280.00
2023-04-30T07:35:43.743Z,23552.00
2023-04-30T07:36:43.730Z,38048.00
2023-04-30T07:38:12.701Z,39552.00
2023-04-30T07:45:50.430Z,39168.00
2023-04-30T07:46:47.828Z,39424.00
2023-04-30T07:47:47.834Z,38816.00
2023-04-30T07:48:47.822Z,38080.00
2023-04-30T07:49:47.832Z,39040.00
2023-04-30T07:50:47.776Z,39520.00
2023-04-30T07:51:47.718Z,39520.00
2023-04-30T07:52:47.729Z,40000.00
2023-04-30T07:53:47.720Z,39808.00
2023-04-30T07:54:47.720Z,42528.00
2023-04-30T07:55:47.709Z,36736.00
2023-04-30T07:56:47.722Z,46752.00
2023-04-30T07:57:47.638Z,46496.00
2023-04-30T07:58:47.650Z,46624.00
2023-04-30T07:59:50.395Z,44832.00
2023-04-30T08:00:47.627Z,45696.00
2023-04-30T08:01:47.630Z,45600.00
2023-04-30T08:02:47.808Z,45120.00
2023-04-30T08:03:47.679Z,48480.00
2023-04-30T08:04:47.629Z,47616.00
2023-04-30T08:05:47.552Z,46144.00
2023-04-30T08:06:47.574Z,46368.00
2023-04-30T08:07:47.534Z,44608.00
2023-04-30T08:08:48.836Z,45120.00
2023-04-30T08:09:47.588Z,47552.00
2023-04-30T08:10:47.435Z,27520.00
2023-04-30T08:11:47.492Z,14472.00
2023-04-30T08:12:47.509Z,14596.00
2023-04-30T08:13:47.450Z,21728.00
2023-04-30T08:14:47.403Z,46976.00
2023-04-30T08:15:47.431Z,47136.00
2023-04-30T08:16:47.451Z,13892.00
2023-04-30T08:17:48.191Z,49760.00
2023-04-30T08:18:47.329Z,51264.00
2023-04-30T08:19:47.306Z,41248.00
2023-04-30T08:20:47.313Z,14468.00
2023-04-30T08:21:47.381Z,13224.00
2023-04-30T08:22:47.261Z,14936.00
2023-04-30T08:23:47.265Z,37184.00
2023-04-30T08:24:47.258Z,54496.00
2023-04-30T08:25:47.284Z,53568.00
2023-04-30T08:26:47.309Z,52768.00
2023-04-30T08:27:47.208Z,37056.00
2023-04-30T08:28:47.198Z,49088.00
2023-04-30T08:29:47.168Z,48288.00
2023-04-30T08:30:47.173Z,51744.00
2023-04-30T08:31:47.168Z,53664.00
2023-04-30T08:32:47.170Z,53568.00
2023-04-30T08:33:47.193Z,51840.00
2023-04-30T08:34:47.151Z,49408.00
2023-04-30T08:35:47.085Z,49472.00
2023-04-30T08:36:47.198Z,53120.00
2023-04-30T08:37:47.060Z,56768.00
2023-04-30T08:38:47.082Z,57792.00
2023-04-30T08:39:47.126Z,55328.00
2023-04-30T08:40:51.637Z,52224.00
2023-04-30T08:41:47.088Z,53216.00
2023-04-30T08:42:47.023Z,54528.00
2023-04-30T08:43:47.029Z,56640.00
2023-04-30T08:44:47.008Z,57632.00
2023-04-30T08:45:47.062Z,57568.00
2023-04-30T08:46:47.004Z,56992.00
2023-04-30T08:47:46.969Z,54336.00
2023-04-30T08:48:47.057Z,53760.00
2023-04-30T08:49:46.942Z,54752.00
2023-04-30T08:50:46.905Z,28672.00
2023-04-30T08:51:46.950Z,58464.00
2023-04-30T08:52:46.877Z,57568.00
2023-04-30T08:53:46.856Z,59296.00
2023-04-30T08:54:47.805Z,59712.00
2023-04-30T08:55:46.886Z,60992.00
2023-04-30T08:56:46.834Z,60928.00
2023-04-30T08:57:46.933Z,61632.00
2023-04-30T08:58:47.596Z,40640.00
2023-04-30T08:59:46.797Z,46592.00
2023-04-30T09:00:47.666Z,62144.00
2023-04-30T09:01:47.563Z,63360.00
2023-04-30T09:02:47.803Z,63584.00
2023-04-30T09:03:46.848Z,62912.00
2023-04-30T09:04:46.759Z,55552.00
2023-04-30T09:05:46.706Z,67392.00
2023-04-30T09:06:47.712Z,65888.00
2023-04-30T09:08:01.021Z,66976.00
2023-04-30T09:08:47.717Z,66816.00
2023-04-30T09:09:47.540Z,68480.00
2023-04-30T09:10:46.629Z,68480.00
2023-04-30T09:11:47.372Z,65216.00
2023-04-30T09:12:46.726Z,66272.00
2023-04-30T09:13:47.119Z,64736.00
2023-04-30T09:14:47.613Z,64928.00
2023-04-30T09:15:47.566Z,62816.00
2023-04-30T09:16:46.573Z,64000.00
2023-04-30T09:17:48.595Z,68192.00
2023-04-30T09:18:46.604Z,67936.00
2023-04-30T09:19:46.663Z,67424.00
2023-04-30T09:20:46.497Z,65664.00
2023-04-30T09:21:47.409Z,67840.00
2023-04-30T09:22:46.564Z,70880.00
2023-04-30T09:23:46.560Z,71488.00
2023-04-30T09:24:47.445Z,72000.00
2023-04-30T09:25:46.557Z,71840.00
2023-04-30T09:26:46.404Z,70496.00
2023-04-30T09:27:47.378Z,69472.00
2023-04-30T09:28:46.456Z,68992.00
2023-04-30T09:29:47.195Z,67072.00
2023-04-30T09:30:47.307Z,67872.00
2023-04-30T09:31:47.386Z,66048.00
2023-04-30T09:32:47.127Z,65632.00
2023-04-30T09:33:47.346Z,67552.00
2023-04-30T09:34:47.205Z,66944.00
2023-04-30T09:35:47.094Z,69152.00
2023-04-30T09:36:46.319Z,66848.00
2023-04-30T09:37:47.204Z,66112.00
2023-04-30T09:38:46.312Z,66688.00
2023-04-30T09:39:47.234Z,68736.00
2023-04-30T09:40:47.166Z,68768.00
2023-04-30T09:41:46.253Z,71008.00
2023-04-30T09:42:46.581Z,71232.00
2023-04-30T09:43:47.169Z,72576.00
2023-04-30T09:44:47.075Z,73024.00
2023-04-30T09:45:46.985Z,76480.00
2023-04-30T09:46:47.163Z,74592.00
2023-04-30T09:47:47.053Z,73920.00
2023-04-30T09:48:46.088Z,72480.00
2023-04-30T09:49:46.100Z,71904.00
2023-04-30T09:50:46.934Z,70016.00
2023-04-30T09:51:46.091Z,69888.00
2023-04-30T09:52:46.061Z,72544.00
2023-04-30T09:53:46.013Z,70912.00
2023-04-30T09:54:46.018Z,70432.00
2023-04-30T09:55:46.028Z,71552.00
2023-04-30T09:56:45.983Z,70368.00
2023-04-30T09:57:45.986Z,69088.00
2023-04-30T09:58:46.015Z,68544.00
2023-04-30T09:59:45.967Z,68704.00
2023-04-30T10:00:46.755Z,68448.00
2023-04-30T10:01:46.902Z,65248.00
2023-04-30T10:02:46.816Z,66688.00
2023-04-30T10:03:46.169Z,69632.00
2023-04-30T10:04:45.891Z,72800.00
2023-04-30T10:05:46.780Z,74368.00
2023-04-30T10:06:46.004Z,73920.00
2023-04-30T10:07:46.066Z,74912.00
2023-04-30T10:08:46.305Z,73696.00
2023-04-30T10:09:46.647Z,74112.00
2023-04-30T10:10:45.850Z,75360.00
2023-04-30T10:11:45.808Z,76000.00
2023-04-30T10:12:45.816Z,75872.00
2023-04-30T10:13:45.785Z,73792.00
2023-04-30T10:14:45.763Z,75232.00
2023-04-30T10:15:46.164Z,75648.00
2023-04-30T10:16:46.797Z,76960.00
2023-04-30T10:17:45.841Z,77280.00
2023-04-30T10:18:45.745Z,76832.00
2023-04-30T10:19:47.665Z,75968.00
2023-04-30T10:20:46.044Z,74176.00
2023-04-30T10:21:45.688Z,73664.00
2023-04-30T10:22:45.716Z,77024.00
2023-04-30T10:23:45.706Z,76064.00
2023-04-30T10:24:46.502Z,72000.00
2023-04-30T10:25:45.649Z,75328.00
2023-04-30T10:26:45.747Z,72512.00
2023-04-30T10:27:46.465Z,75552.00
2023-04-30T10:28:45.685Z,76064.00
2023-04-30T10:29:45.758Z,78368.00
2023-04-30T10:30:45.832Z,79104.00
2023-04-30T10:31:45.566Z,79936.00
2023-04-30T10:32:45.786Z,80224.00
2023-04-30T10:33:45.706Z,78752.00
2023-04-30T10:34:46.304Z,78560.00
2023-04-30T10:35:45.769Z,76416.00
2023-04-30T10:36:45.477Z,75488.00
2023-04-30T10:37:45.680Z,80320.00
2023-04-30T10:38:48.354Z,82848.00
2023-04-30T10:39:46.398Z,85984.00
2023-04-30T10:40:45.441Z,88096.00
2023-04-30T10:41:45.520Z,86048.00
2023-04-30T10:42:45.745Z,84288.00
2023-04-30T10:43:45.421Z,83712.00
2023-04-30T10:44:46.108Z,84800.00
2023-04-30T10:45:45.423Z,88640.00
2023-04-30T10:46:45.378Z,93344.00
2023-04-30T10:47:45.600Z,92640.00
2023-04-30T10:48:45.443Z,88768.00
2023-04-30T10:49:45.280Z,88448.00
2023-04-30T10:50:46.220Z,85408.00
2023-04-30T10:51:45.260Z,92128.00
2023-04-30T10:52:45.239Z,92896.00
2023-04-30T10:53:45.265Z,93280.00
2023-04-30T10:54:45.532Z,95104.00
2023-04-30T10:55:45.213Z,92640.00
2023-04-30T10:56:45.234Z,97184.00
2023-04-30T10:57:45.241Z,100032.00
2023-04-30T10:58:45.191Z,102944.00
2023-04-30T10:59:45.167Z,104672.00
2023-04-30T11:00:45.127Z,101056.00
2023-04-30T11:01:45.262Z,99360.00
2023-04-30T11:02:45.186Z,100960.00
2023-04-30T11:03:45.112Z,100640.00
2023-04-30T11:04:45.100Z,99936.00
2023-04-30T11:05:45.071Z,99200.00
2023-04-30T11:06:45.194Z,102080.00
2023-04-30T11:07:45.076Z,102656.00
2023-04-30T11:08:45.025Z,107360.00
2023-04-30T11:09:45.031Z,108000.00
2023-04-30T11:10:45.051Z,110144.00
2023-04-30T11:11:44.999Z,107296.00
2023-04-30T11:12:45.067Z,105440.00
2023-04-30T11:13:45.030Z,100576.00
2023-04-30T11:14:44.961Z,102272.00
2023-04-30T11:15:45.005Z,102880.00
2023-04-30T11:16:44.955Z,98112.00
2023-04-30T11:17:45.024Z,99904.00
2023-04-30T11:18:45.604Z,98560.00
2023-04-30T11:19:44.880Z,104416.00
2023-04-30T11:20:44.858Z,103904.00
2023-04-30T11:21:44.982Z,105152.00
2023-04-30T11:22:44.821Z,101696.00
2023-04-30T11:23:44.810Z,107040.00
2023-04-30T11:24:44.859Z,102144.00
2023-04-30T11:25:44.873Z,105696.00
2023-04-30T11:26:44.811Z,106144.00
2023-04-30T11:27:44.816Z,101984.00
2023-04-30T11:28:44.796Z,100672.00
2023-04-30T11:29:44.843Z,100192.00
2023-04-30T11:30:44.724Z,102624.00
2023-04-30T11:31:44.856Z,102848.00
2023-04-30T11:32:44.827Z,103296.00
2023-04-30T11:33:44.756Z,101280.00
2023-04-30T11:34:44.659Z,105536.00
2023-04-30T11:35:44.684Z,101472.00
2023-04-30T11:36:46.745Z,105024.00
2023-04-30T11:37:44.742Z,103840.00
2023-04-30T11:38:44.622Z,100768.00
2023-04-30T11:39:44.618Z,102656.00
2023-04-30T11:40:44.613Z,101728.00
2023-04-30T11:41:44.594Z,104096.00
2023-04-30T11:42:46.473Z,106016.00
2023-04-30T11:43:44.546Z,102688.00
2023-04-30T11:44:44.625Z,98336.00
2023-04-30T11:45:44.559Z,100032.00
2023-04-30T11:46:44.624Z,99424.00
2023-04-30T11:47:44.650Z,103328.00
2023-04-30T11:48:44.517Z,100576.00
2023-04-30T11:49:44.480Z,97472.00
2023-04-30T11:50:44.500Z,99520.00
2023-04-30T11:51:44.433Z,97632.00
2023-04-30T11:52:44.442Z,98016.00
2023-04-30T11:53:44.832Z,97376.00
2023-04-30T11:54:44.430Z,98144.00
2023-04-30T11:55:44.418Z,96800.00
2023-04-30T11:56:44.361Z,98688.00
2023-04-30T11:57:44.627Z,93568.00
2023-04-30T11:58:44.402Z,94688.00
2023-04-30T11:59:44.385Z,94144.00
2023-04-30T12:00:44.375Z,94816.00
2023-04-30T12:01:44.505Z,95040.00
2023-04-30T12:02:44.480Z,93856.00
2023-04-30T12:03:44.432Z,92544.00
2023-04-30T12:04:44.302Z,89792.00
2023-04-30T12:05:45.340Z,91424.00
2023-04-30T12:06:44.316Z,87680.00
2023-04-30T12:07:44.247Z,93376.00
2023-04-30T12:08:44.232Z,86912.00
2023-04-30T12:09:44.278Z,91808.00
2023-04-30T12:10:44.266Z,91904.00
2023-04-30T12:11:44.174Z,90560.00
2023-04-30T12:12:44.206Z,89792.00
2023-04-30T12:13:44.174Z,89120.00
2023-04-30T12:14:44.134Z,87552.00
2023-04-30T12:15:45.078Z,85984.00
2023-04-30T12:16:44.358Z,87232.00
2023-04-30T12:17:44.132Z,83584.00
2023-04-30T12:18:44.069Z,86016.00
2023-04-30T12:19:44.950Z,84992.00
2023-04-30T12:20:44.081Z,81824.00
2023-04-30T12:21:44.050Z,80352.00
2023-04-30T12:22:44.017Z,76000.00
2023-04-30T12:23:44.002Z,72960.00
2023-04-30T12:24:44.011Z,75648.00
2023-04-30T12:25:44.115Z,80224.00
2023-04-30T12:26:43.980Z,82400.00
2023-04-30T12:27:43.970Z,83712.00
2023-04-30T12:28:43.971Z,89504.00
2023-04-30T12:29:43.941Z,88096.00
2023-04-30T12:30:43.995Z,84992.00
2023-04-30T12:31:44.049Z,84896.00
2023-04-30T12:32:43.972Z,80608.00
2023-04-30T12:33:43.958Z,83328.00
2023-04-30T12:34:43.938Z,82432.00
2023-04-30T12:35:44.666Z,81152.00
2023-04-30T12:36:44.836Z,82240.00
2023-04-30T12:37:43.861Z,84384.00
2023-04-30T12:38:44.643Z,80896.00
2023-04-30T12:39:43.844Z,85184.00